Panola, Oklahoma
Current Conditions -  °F | °C
As of 4:15 AM on Friday 21 Nov 2014 (Local Time) from KGZL Reporting Station
Overcast Overcast  
Wind Chill: 42°   Ceiling: 2200
Heat Index: 48°   Visibility: 10mi
Dew Point: 36°   Wind: 15mph
Humidity: 62%   Direction: 110°ESE
Pressure: 30.14"   Gusts: 20mph
Location:  34.93°N, 95.21°W
Report Text: KGZL 211015Z AUTO 11013G17KT 10SM OVC022 09/02 A3014 RMK AO2
Loading
Personal Weather Stations






























Interactive Weather Map New forecast layout! Learn more

10-Day Weather Forecast

Advertisements
Track Severe Weather on mobile